Time;durP1;ratioP1;P1;durP2;ratioP2;P2;SDS_P1;SDS_P2;PMS_P1;PMS_P2;Temp;Humidity;BMP_temperature;BMP_pressure;BME280_temperature;BME280_humidity;BME280_pressure;Samples;Min_cycle;Max_cycle;Signal;HPM_P1;HPM_P2
2021/12/20 00:01:57;;;;;;;10.48;5.88;;;;;;;;;;5029864;28;20636;-79
2021/12/20 00:04:23;;;;;;;10.32;5.38;;;;;;;;;;5026306;28;20040;-80
2021/12/20 00:06:50;;;;;;;10.68;6.30;;;;;;;;;;5017040;28;20051;-82
2021/12/20 00:09:17;;;;;;;11.57;6.68;;;;;;;;;;5016611;28;20526;-80
2021/12/20 00:11:43;;;;;;;11.95;6.43;;;;;;;;;;5026170;28;20064;-81
2021/12/20 00:14:09;;;;;;;11.15;6.53;;;;;;;;;;5023463;28;20533;-82
2021/12/20 00:16:35;;;;;;;11.27;7.60;;;;;;;;;;5017161;28;20034;-80
2021/12/20 00:19:01;;;;;;;11.15;5.88;;;;;;;;;;5014804;28;20025;-85
2021/12/20 00:21:27;;;;;;;11.25;6.90;;;;;;;;;;5015913;28;20052;-82
2021/12/20 00:23:53;;;;;;;9.93;6.65;;;;;;;;;;5017785;28;20026;-81
2021/12/20 00:26:19;;;;;;;10.43;6.88;;;;;;;;;;5016381;28;20542;-81
2021/12/20 00:28:45;;;;;;;9.90;6.60;;;;;;;;;;5028802;28;20071;-82
2021/12/20 00:31:11;;;;;;;9.38;6.20;;;;;;;;;;5029332;28;20048;-82
2021/12/20 00:33:37;;;;;;;10.38;5.55;;;;;;;;;;5018433;28;20022;-80
2021/12/20 00:36:06;;;;;;;10.65;5.75;;;;;;;;;;5020419;28;20610;-82
2021/12/20 00:41:17;;;;;;;10.00;6.32;;;;;;;;;;5019637;28;20364;-83
2021/12/20 00:43:43;;;;;;;10.07;5.90;;;;;;;;;;5019531;28;20033;-80
2021/12/20 00:46:09;;;;;;;9.00;6.15;;;;;;;;;;5019097;28;20103;-80
2021/12/20 00:48:35;;;;;;;10.63;5.60;;;;;;;;;;5015814;28;20046;-81
2021/12/20 00:51:01;;;;;;;9.13;5.22;;;;;;;;;;5017049;28;20068;-81
2021/12/20 00:53:27;;;;;;;10.10;5.25;;;;;;;;;;5018848;28;20088;-82
2021/12/20 00:55:53;;;;;;;8.93;4.80;;;;;;;;;;5019406;28;20030;-81
2021/12/20 00:58:19;;;;;;;9.68;5.72;;;;;;;;;;5019691;28;20045;-80
2021/12/20 01:00:47;;;;;;;10.07;5.90;;;;;;;;;;5020509;28;20030;-80
2021/12/20 01:03:13;;;;;;;10.32;5.75;;;;;;;;;;5013463;28;20033;-81
2021/12/20 01:05:40;;;;;;;10.63;5.90;;;;;;;;;;5017445;28;20132;-81
2021/12/20 01:08:07;;;;;;;9.13;5.40;;;;;;;;;;5019431;28;20403;-81
2021/12/20 01:10:34;;;;;;;10.82;6.15;;;;;;;;;;5018242;28;20033;-81
2021/12/20 01:13:02;;;;;;;9.63;5.55;;;;;;;;;;5017095;28;20026;-80
2021/12/20 01:15:32;;;;;;;9.27;6.07;;;;;;;;;;5018360;28;20032;-80
2021/12/20 01:17:58;;;;;;;9.02;5.28;;;;;;;;;;5018535;28;20108;-80
2021/12/20 01:20:24;;;;;;;11.05;5.90;;;;;;;;;;5009220;28;20022;-81
2021/12/20 01:22:51;;;;;;;9.38;5.20;;;;;;;;;;4998523;28;20080;-82
2021/12/20 01:25:18;;;;;;;9.20;5.43;;;;;;;;;;5011697;28;20512;-80
2021/12/20 01:27:44;;;;;;;10.75;5.53;;;;;;;;;;5018329;28;20026;-82
2021/12/20 01:30:11;;;;;;;9.57;5.32;;;;;;;;;;5012378;28;20026;-80
2021/12/20 01:32:38;;;;;;;9.30;5.22;;;;;;;;;;5012225;28;20530;-81
2021/12/20 01:35:04;;;;;;;9.15;4.75;;;;;;;;;;5018540;28;20022;-79
2021/12/20 01:37:30;;;;;;;8.18;3.67;;;;;;;;;;5017439;28;20121;-80
2021/12/20 01:39:59;;;;;;;6.80;4.20;;;;;;;;;;5013856;28;20026;-80
2021/12/20 01:42:26;;;;;;;5.55;3.22;;;;;;;;;;4998541;28;20037;-80
2021/12/20 01:44:56;;;;;;;5.80;2.45;;;;;;;;;;5005912;28;20487;-81
2021/12/20 01:47:23;;;;;;;6.38;3.00;;;;;;;;;;5018899;28;20022;-80
2021/12/20 01:50:04;;;;;;;4.95;2.30;;;;;;;;;;5017741;28;20100;-80
2021/12/20 01:52:39;;;;;;;5.05;2.40;;;;;;;;;;5018779;28;20460;-81
2021/12/20 01:55:09;;;;;;;5.15;2.50;;;;;;;;;;5019266;28;20046;-80
2021/12/20 01:57:35;;;;;;;5.00;1.50;;;;;;;;;;5018230;28;20112;-80
2021/12/20 02:00:04;;;;;;;4.43;1.75;;;;;;;;;;5019093;28;20480;-80
2021/12/20 02:02:30;;;;;;;4.13;1.90;;;;;;;;;;5019635;28;20403;-81
2021/12/20 02:05:05;;;;;;;3.30;1.30;;;;;;;;;;5018894;28;20491;-80
2021/12/20 02:07:49;;;;;;;3.67;1.58;;;;;;;;;;5018333;28;20538;-80
2021/12/20 02:10:16;;;;;;;4.07;1.60;;;;;;;;;;5016818;28;20030;-80
2021/12/20 02:12:42;;;;;;;3.83;1.88;;;;;;;;;;5019202;28;20091;-80
2021/12/20 02:15:08;;;;;;;3.95;1.73;;;;;;;;;;5019542;28;20079;-81
2021/12/20 02:17:34;;;;;;;3.75;1.40;;;;;;;;;;5018550;28;20030;-80
2021/12/20 02:20:00;;;;;;;4.55;1.60;;;;;;;;;;5019393;28;20037;-80
2021/12/20 02:22:26;;;;;;;4.15;1.83;;;;;;;;;;5019136;28;20030;-80
2021/12/20 02:24:52;;;;;;;3.70;1.50;;;;;;;;;;5019883;28;20117;-81
2021/12/20 02:27:20;;;;;;;4.03;1.50;;;;;;;;;;5018977;28;20045;-81
2021/12/20 02:30:10;;;;;;;3.83;1.67;;;;;;;;;;5016805;28;20083;-80
2021/12/20 02:38:23;;;;;;;4.10;1.60;;;;;;;;;;5019361;28;20161;-81
2021/12/20 02:41:08;;;;;;;2.88;1.00;;;;;;;;;;5019584;28;20052;-81
2021/12/20 02:43:38;;;;;;;2.40;1.10;;;;;;;;;;5020891;28;20072;-81
2021/12/20 02:46:09;;;;;;;3.00;0.93;;;;;;;;;;5019850;28;20030;-82
2021/12/20 02:48:35;;;;;;;2.78;1.13;;;;;;;;;;5011063;28;20038;-81
2021/12/20 02:51:01;;;;;;;3.28;1.10;;;;;;;;;;5016861;28;20037;-81
2021/12/20 02:53:27;;;;;;;3.17;1.10;;;;;;;;;;5006875;28;20030;-80
2021/12/20 02:55:53;;;;;;;2.83;1.10;;;;;;;;;;5018794;28;20196;-80
2021/12/20 02:58:19;;;;;;;2.60;0.90;;;;;;;;;;5019514;28;20018;-81
2021/12/20 03:00:45;;;;;;;3.17;1.20;;;;;;;;;;5021243;28;20321;-80
2021/12/20 03:03:11;;;;;;;4.03;1.30;;;;;;;;;;5030385;28;20094;-81
2021/12/20 03:05:37;;;;;;;2.63;1.20;;;;;;;;;;5029747;28;20037;-80
2021/12/20 03:08:04;;;;;;;6.25;1.30;;;;;;;;;;5021152;28;20595;-80
2021/12/20 03:10:31;;;;;;;3.63;1.20;;;;;;;;;;5018082;28;20045;-80
2021/12/20 03:12:58;;;;;;;2.65;0.93;;;;;;;;;;5010167;28;20543;-81
2021/12/20 03:15:26;;;;;;;3.30;1.15;;;;;;;;;;5017821;28;20077;-80
2021/12/20 03:17:54;;;;;;;2.97;1.13;;;;;;;;;;5017283;28;20026;-81
2021/12/20 03:20:21;;;;;;;3.38;1.35;;;;;;;;;;5016822;28;20026;-80
2021/12/20 03:22:47;;;;;;;4.45;1.50;;;;;;;;;;5001310;28;20045;-80
2021/12/20 03:25:13;;;;;;;2.97;1.45;;;;;;;;;;5028138;28;20022;-80
2021/12/20 03:27:39;;;;;;;3.53;1.48;;;;;;;;;;5032945;28;20117;-81
2021/12/20 03:30:07;;;;;;;4.05;1.40;;;;;;;;;;5020753;28;20081;-81
2021/12/20 03:32:33;;;;;;;3.05;1.23;;;;;;;;;;5008219;28;20044;-81
2021/12/20 03:35:00;;;;;;;4.43;1.45;;;;;;;;;;5019710;28;20464;-81
2021/12/20 03:37:26;;;;;;;2.53;1.02;;;;;;;;;;5018973;28;20025;-81
2021/12/20 03:39:52;;;;;;;2.97;1.40;;;;;;;;;;5019165;28;20038;-81
2021/12/20 03:42:19;;;;;;;3.53;1.20;;;;;;;;;;5006073;28;20046;-81
2021/12/20 03:44:46;;;;;;;3.17;1.13;;;;;;;;;;4999511;28;20015;-80
2021/12/20 03:47:13;;;;;;;3.17;0.93;;;;;;;;;;5017921;28;20026;-81
2021/12/20 03:49:40;;;;;;;2.95;1.08;;;;;;;;;;5011979;28;20030;-80
2021/12/20 03:52:07;;;;;;;3.25;1.20;;;;;;;;;;5017768;28;20422;-81
2021/12/20 03:54:33;;;;;;;3.72;1.52;;;;;;;;;;5010142;28;20029;-81
2021/12/20 03:56:59;;;;;;;3.80;1.20;;;;;;;;;;5017515;28;20036;-80
2021/12/20 03:59:28;;;;;;;3.78;1.33;;;;;;;;;;5016948;28;20084;-81
2021/12/20 04:01:54;;;;;;;3.35;1.13;;;;;;;;;;5016590;28;20070;-82
2021/12/20 04:04:20;;;;;;;3.53;1.45;;;;;;;;;;5018436;28;20089;-80
2021/12/20 04:06:46;;;;;;;4.05;1.40;;;;;;;;;;5017766;28;20088;-81
2021/12/20 04:09:12;;;;;;;3.40;1.50;;;;;;;;;;5008866;28;20025;-81
2021/12/20 04:11:38;;;;;;;4.18;1.50;;;;;;;;;;5018329;28;20026;-82
2021/12/20 04:14:04;;;;;;;3.78;1.58;;;;;;;;;;5017163;28;20448;-81
2021/12/20 04:16:30;;;;;;;5.63;1.90;;;;;;;;;;5017699;28;20409;-82
2021/12/20 04:18:57;;;;;;;4.82;2.38;;;;;;;;;;5016947;28;20038;-81
2021/12/20 04:21:23;;;;;;;4.38;1.92;;;;;;;;;;5017846;28;20018;-81
2021/12/20 04:23:49;;;;;;;4.57;1.90;;;;;;;;;;5015677;28;20093;-81
2021/12/20 04:26:15;;;;;;;5.65;1.98;;;;;;;;;;5008939;28;20027;-81
2021/12/20 04:28:41;;;;;;;4.50;1.77;;;;;;;;;;5013103;28;20176;-80
2021/12/20 04:31:08;;;;;;;4.40;2.00;;;;;;;;;;5017505;28;20420;-81
2021/12/20 04:33:34;;;;;;;5.47;2.10;;;;;;;;;;5017749;28;20109;-80
2021/12/20 04:36:00;;;;;;;4.93;1.88;;;;;;;;;;5017090;28;20022;-80
2021/12/20 04:38:28;;;;;;;5.30;2.22;;;;;;;;;;5014220;28;20044;-80
2021/12/20 04:40:54;;;;;;;6.47;2.17;;;;;;;;;;5015008;28;20018;-81
2021/12/20 04:43:20;;;;;;;4.53;1.85;;;;;;;;;;5015662;28;20082;-81
2021/12/20 04:45:47;;;;;;;4.15;1.80;;;;;;;;;;5015589;28;20033;-80
2021/12/20 04:48:13;;;;;;;4.30;1.80;;;;;;;;;;5011105;28;20049;-81
2021/12/20 04:50:39;;;;;;;3.25;1.70;;;;;;;;;;5016082;28;20034;-81
2021/12/20 04:53:05;;;;;;;4.18;1.48;;;;;;;;;;5015885;28;20106;-80
2021/12/20 04:55:32;;;;;;;4.03;2.03;;;;;;;;;;5015771;28;20476;-81
2021/12/20 04:57:59;;;;;;;4.03;1.58;;;;;;;;;;5014804;28;20395;-80
2021/12/20 05:00:26;;;;;;;4.60;1.48;;;;;;;;;;5013006;28;20030;-80
2021/12/20 05:02:52;;;;;;;3.45;1.55;;;;;;;;;;5012582;28;20030;-80
2021/12/20 05:05:18;;;;;;;5.65;1.80;;;;;;;;;;5007110;28;20030;-80
2021/12/20 05:07:45;;;;;;;4.70;1.63;;;;;;;;;;5013377;28;20109;-80
2021/12/20 05:10:14;;;;;;;4.18;1.80;;;;;;;;;;5009089;28;20030;-80
2021/12/20 05:12:40;;;;;;;5.03;1.83;;;;;;;;;;5005868;28;20030;-80
2021/12/20 05:15:07;;;;;;;5.18;2.65;;;;;;;;;;5009215;28;20038;-81
2021/12/20 05:17:35;;;;;;;4.47;2.00;;;;;;;;;;5018361;28;20418;-81
2021/12/20 05:20:01;;;;;;;5.07;2.38;;;;;;;;;;5016315;28;20112;-81
2021/12/20 05:22:28;;;;;;;4.65;2.08;;;;;;;;;;5022408;28;20026;-81
2021/12/20 05:24:53;;;;;;;5.50;1.80;;;;;;;;;;5017716;28;20120;-82
2021/12/20 05:27:19;;;;;;;4.10;1.77;;;;;;;;;;5015129;28;20073;-81
2021/12/20 05:29:47;;;;;;;3.83;1.52;;;;;;;;;;5016679;28;20090;-81
2021/12/20 05:32:13;;;;;;;5.03;1.70;;;;;;;;;;5019116;28;20026;-83
2021/12/20 05:34:39;;;;;;;4.90;1.92;;;;;;;;;;5016973;28;20030;-81
2021/12/20 05:37:05;;;;;;;4.00;1.80;;;;;;;;;;5016658;28;20064;-81
2021/12/20 05:39:31;;;;;;;4.38;1.63;;;;;;;;;;5014774;28;20045;-81
2021/12/20 05:41:57;;;;;;;4.60;1.70;;;;;;;;;;5017586;28;20038;-81
2021/12/20 05:44:23;;;;;;;4.90;1.95;;;;;;;;;;5019067;28;20160;-81
2021/12/20 05:46:50;;;;;;;3.83;1.40;;;;;;;;;;5023489;28;20498;-81
2021/12/20 05:49:16;;;;;;;4.03;1.60;;;;;;;;;;5021093;28;20120;-81
2021/12/20 05:51:42;;;;;;;4.80;1.80;;;;;;;;;;5019536;28;20064;-80
2021/12/20 05:54:08;;;;;;;3.90;1.73;;;;;;;;;;5020316;28;20026;-80
2021/12/20 05:56:34;;;;;;;3.90;1.52;;;;;;;;;;5017781;28;20080;-81
2021/12/20 05:59:00;;;;;;;4.18;1.65;;;;;;;;;;5017568;28;20028;-82
2021/12/20 06:01:26;;;;;;;3.70;1.67;;;;;;;;;;5017590;28;20106;-81
2021/12/20 06:03:52;;;;;;;5.10;1.75;;;;;;;;;;5018323;28;20033;-81
2021/12/20 06:06:18;;;;;;;3.78;1.55;;;;;;;;;;5017236;28;20025;-83
2021/12/20 06:08:44;;;;;;;4.03;1.35;;;;;;;;;;5024853;28;20014;-82
2021/12/20 06:11:10;;;;;;;5.35;1.50;;;;;;;;;;5016269;28;20451;-80
2021/12/20 06:13:36;;;;;;;3.97;1.73;;;;;;;;;;5018539;28;20036;-81
2021/12/20 06:16:02;;;;;;;4.15;1.77;;;;;;;;;;5015425;28;20056;-82
2021/12/20 06:18:28;;;;;;;3.60;1.40;;;;;;;;;;5006152;28;20029;-81
2021/12/20 06:20:54;;;;;;;3.47;1.65;;;;;;;;;;5013147;28;20037;-81
2021/12/20 06:23:20;;;;;;;3.38;1.35;;;;;;;;;;4998198;28;20031;-81
2021/12/20 06:25:46;;;;;;;2.78;1.23;;;;;;;;;;4998680;28;20041;-82
2021/12/20 06:28:12;;;;;;;5.15;1.92;;;;;;;;;;5008057;28;20412;-82
2021/12/20 06:30:38;;;;;;;4.80;1.73;;;;;;;;;;5014306;28;20038;-83
2021/12/20 06:33:15;;;;;;;4.50;1.77;;;;;;;;;;5012425;28;20027;-81
2021/12/20 06:35:41;;;;;;;3.55;1.42;;;;;;;;;;5011850;28;20116;-84
2021/12/20 06:38:08;;;;;;;4.32;1.33;;;;;;;;;;5013328;28;20021;-81
2021/12/20 06:40:35;;;;;;;4.72;1.50;;;;;;;;;;5008494;28;20094;-82
2021/12/20 06:43:02;;;;;;;3.58;1.33;;;;;;;;;;5018849;28;20036;-82
2021/12/20 06:45:29;;;;;;;4.20;1.75;;;;;;;;;;5035380;28;20064;-81
2021/12/20 06:47:55;;;;;;;4.05;1.45;;;;;;;;;;5007374;28;20041;-83
2021/12/20 06:50:21;;;;;;;3.67;1.77;;;;;;;;;;5015917;28;20030;-82
2021/12/20 06:52:47;;;;;;;4.05;1.70;;;;;;;;;;5004749;28;20038;-82
2021/12/20 06:55:13;;;;;;;5.85;2.22;;;;;;;;;;4998242;28;20065;-82
2021/12/20 06:57:40;;;;;;;5.65;1.90;;;;;;;;;;5002472;28;20409;-82
2021/12/20 07:00:07;;;;;;;5.40;1.95;;;;;;;;;;5014655;28;20060;-82
2021/12/20 07:02:33;;;;;;;3.35;1.35;;;;;;;;;;5015255;28;20048;-82
2021/12/20 07:04:59;;;;;;;3.55;1.55;;;;;;;;;;5014906;28;20076;-82
2021/12/20 07:07:25;;;;;;;6.30;2.63;;;;;;;;;;5015947;28;20112;-81
2021/12/20 07:09:51;;;;;;;5.10;2.00;;;;;;;;;;5015994;28;20033;-82
2021/12/20 07:12:17;;;;;;;5.72;2.30;;;;;;;;;;5017559;28;20026;-83
2021/12/20 07:14:43;;;;;;;5.43;1.70;;;;;;;;;;5015568;28;20033;-81
2021/12/20 07:17:09;;;;;;;3.90;1.80;;;;;;;;;;5014761;28;20022;-82
2021/12/20 07:19:35;;;;;;;6.80;1.92;;;;;;;;;;5012621;28;20018;-83
2021/12/20 07:22:01;;;;;;;5.68;2.30;;;;;;;;;;5009284;28;20216;-83
2021/12/20 07:24:27;;;;;;;5.22;1.85;;;;;;;;;;4994084;28;20030;-81
2021/12/20 07:26:53;;;;;;;5.75;2.42;;;;;;;;;;5001316;28;20032;-81
2021/12/20 07:29:19;;;;;;;6.18;2.22;;;;;;;;;;5014020;28;20484;-82
2021/12/20 07:31:46;;;;;;;5.20;1.80;;;;;;;;;;5011987;28;20040;-82
2021/12/20 07:34:12;;;;;;;5.93;2.40;;;;;;;;;;5015404;28;20018;-81
2021/12/20 07:36:38;;;;;;;3.70;1.85;;;;;;;;;;5016044;28;20029;-82
2021/12/20 07:39:05;;;;;;;6.85;2.20;;;;;;;;;;5018018;28;20022;-81
2021/12/20 07:41:31;;;;;;;4.82;2.22;;;;;;;;;;5025506;28;20033;-82
2021/12/20 07:43:57;;;;;;;4.90;2.25;;;;;;;;;;5006989;28;20035;-82
2021/12/20 07:46:23;;;;;;;4.35;1.65;;;;;;;;;;4998504;28;20037;-82
2021/12/20 07:48:50;;;;;;;6.45;1.90;;;;;;;;;;5005870;28;20029;-82
2021/12/20 07:51:17;;;;;;;7.10;1.88;;;;;;;;;;5011912;28;20122;-82
2021/12/20 07:53:43;;;;;;;5.40;2.30;;;;;;;;;;5014127;28;20030;-82
2021/12/20 07:56:09;;;;;;;6.30;2.75;;;;;;;;;;5013974;28;20258;-82
2021/12/20 07:58:35;;;;;;;7.38;2.30;;;;;;;;;;5004061;28;20037;-82
2021/12/20 08:01:04;;;;;;;4.30;2.00;;;;;;;;;;5008510;28;20030;-82
2021/12/20 08:03:30;;;;;;;3.65;1.80;;;;;;;;;;5013107;28;20053;-82
2021/12/20 08:05:57;;;;;;;4.05;2.00;;;;;;;;;;5013261;28;20021;-81
2021/12/20 08:08:23;;;;;;;6.07;2.78;;;;;;;;;;5013640;28;20546;-82
2021/12/20 08:10:49;;;;;;;5.15;2.10;;;;;;;;;;5010847;28;20037;-82
2021/12/20 08:13:16;;;;;;;7.18;2.05;;;;;;;;;;5014133;28;20034;-81
2021/12/20 08:15:42;;;;;;;6.07;2.50;;;;;;;;;;5012156;28;20060;-83
2021/12/20 08:18:08;;;;;;;5.82;1.90;;;;;;;;;;5013626;28;20026;-83
2021/12/20 08:20:34;;;;;;;5.28;2.47;;;;;;;;;;5012298;28;20030;-81
2021/12/20 08:23:01;;;;;;;21.17;4.60;;;;;;;;;;5013001;28;20065;-81
2021/12/20 08:25:28;;;;;;;7.75;2.17;;;;;;;;;;5013319;28;20057;-82
2021/12/20 08:27:54;;;;;;;6.10;2.20;;;;;;;;;;5012732;28;20380;-83
2021/12/20 08:30:22;;;;;;;7.88;2.53;;;;;;;;;;5011216;28;20037;-81
2021/12/20 08:32:48;;;;;;;4.35;2.17;;;;;;;;;;5014660;28;20032;-81
2021/12/20 08:35:15;;;;;;;4.97;2.63;;;;;;;;;;5013192;28;20022;-81
2021/12/20 08:37:41;;;;;;;4.43;2.05;;;;;;;;;;5013055;28;20030;-81
2021/12/20 08:40:10;;;;;;;5.30;2.30;;;;;;;;;;5013507;28;20053;-82
2021/12/20 08:42:36;;;;;;;6.03;2.30;;;;;;;;;;5014163;28;20491;-81
2021/12/20 08:45:03;;;;;;;4.65;1.92;;;;;;;;;;5013542;28;20617;-81
2021/12/20 08:47:32;;;;;;;5.10;1.83;;;;;;;;;;5000626;28;20041;-81
2021/12/20 08:49:58;;;;;;;4.57;1.63;;;;;;;;;;5002595;28;20083;-82
2021/12/20 08:52:24;;;;;;;5.10;1.75;;;;;;;;;;5019407;28;20038;-82
2021/12/20 08:54:50;;;;;;;5.55;2.00;;;;;;;;;;5019293;28;20387;-81
2021/12/20 08:57:16;;;;;;;4.32;1.90;;;;;;;;;;5016373;28;20136;-82
2021/12/20 08:59:43;;;;;;;5.03;2.30;;;;;;;;;;5019070;28;20622;-83
2021/12/20 09:02:09;;;;;;;4.38;1.73;;;;;;;;;;5019876;28;20021;-82
2021/12/20 09:04:35;;;;;;;5.00;1.60;;;;;;;;;;5020164;28;20388;-83
2021/12/20 09:07:02;;;;;;;4.72;1.75;;;;;;;;;;5018774;28;20032;-83
2021/12/20 09:09:28;;;;;;;5.00;1.63;;;;;;;;;;5017707;28;20061;-82
2021/12/20 09:11:54;;;;;;;4.10;1.60;;;;;;;;;;5019298;28;20033;-83
2021/12/20 09:14:20;;;;;;;7.53;2.00;;;;;;;;;;5019334;28;20018;-82
2021/12/20 09:16:46;;;;;;;5.70;1.67;;;;;;;;;;5017345;28;20060;-81
2021/12/20 09:19:12;;;;;;;4.88;1.60;;;;;;;;;;5019566;28;20038;-83
2021/12/20 09:21:38;;;;;;;4.90;1.73;;;;;;;;;;5017854;28;20460;-82
2021/12/20 09:24:07;;;;;;;3.80;1.50;;;;;;;;;;5019461;28;20048;-82
2021/12/20 09:26:33;;;;;;;6.43;2.20;;;;;;;;;;5018463;28;20014;-83
2021/12/20 09:28:59;;;;;;;3.80;1.88;;;;;;;;;;5007026;28;20076;-82
2021/12/20 09:31:25;;;;;;;4.90;1.83;;;;;;;;;;5013835;28;20026;-82
2021/12/20 09:33:51;;;;;;;3.40;1.63;;;;;;;;;;5016649;28;20022;-83
2021/12/20 09:36:17;;;;;;;4.15;1.77;;;;;;;;;;5016568;28;20030;-81
2021/12/20 09:38:43;;;;;;;4.00;1.70;;;;;;;;;;5017880;28;20036;-83
2021/12/20 09:43:37;;;;;;;5.68;1.67;;;;;;;;;;5000087;28;20042;-83
2021/12/20 09:46:04;;;;;;;4.22;1.60;;;;;;;;;;4999439;28;20029;-82
2021/12/20 09:48:30;;;;;;;3.58;1.63;;;;;;;;;;5008241;28;20045;-82
2021/12/20 09:50:57;;;;;;;6.45;1.85;;;;;;;;;;5015834;28;20103;-82
2021/12/20 09:53:24;;;;;;;6.15;1.90;;;;;;;;;;5017353;28;20046;-82
2021/12/20 09:55:51;;;;;;;5.45;1.80;;;;;;;;;;5031316;28;20060;-81
2021/12/20 09:58:21;;;;;;;4.53;1.80;;;;;;;;;;5036153;28;20034;-81
2021/12/20 10:00:47;;;;;;;4.45;1.80;;;;;;;;;;5020573;28;20044;-83
2021/12/20 10:03:13;;;;;;;5.97;1.80;;;;;;;;;;5013444;28;20034;-82
2021/12/20 10:05:40;;;;;;;6.00;1.65;;;;;;;;;;5017747;28;20025;-83
2021/12/20 10:08:14;;;;;;;4.78;1.88;;;;;;;;;;5017088;28;20084;-82
2021/12/20 10:10:48;;;;;;;3.85;1.75;;;;;;;;;;5018326;28;20124;-82
2021/12/20 10:13:25;;;;;;;4.97;2.05;;;;;;;;;;5018401;28;20026;-82
2021/12/20 10:15:51;;;;;;;6.03;2.20;;;;;;;;;;5018119;28;20110;-83
2021/12/20 10:18:17;;;;;;;7.05;2.28;;;;;;;;;;5016920;28;20026;-82
2021/12/20 10:20:48;;;;;;;5.25;1.80;;;;;;;;;;5013927;28;20033;-82
2021/12/20 10:23:17;;;;;;;4.45;2.00;;;;;;;;;;5016459;28;20026;-83
2021/12/20 10:25:44;;;;;;;4.85;2.10;;;;;;;;;;5017344;28;20022;-83
2021/12/20 10:28:15;;;;;;;4.07;1.65;;;;;;;;;;5017369;28;20060;-83
2021/12/20 10:30:45;;;;;;;4.55;2.03;;;;;;;;;;5017343;28;20417;-83
2021/12/20 10:33:13;;;;;;;5.60;2.13;;;;;;;;;;5017246;28;20021;-83
2021/12/20 10:35:44;;;;;;;5.78;1.95;;;;;;;;;;5015930;28;20025;-83
2021/12/20 10:38:20;;;;;;;3.88;1.90;;;;;;;;;;5016699;28;20438;-83
2021/12/20 10:40:47;;;;;;;4.55;2.00;;;;;;;;;;5014839;28;20125;-81
2021/12/20 10:43:15;;;;;;;6.22;1.85;;;;;;;;;;5016778;28;20105;-82
2021/12/20 10:45:41;;;;;;;3.67;1.60;;;;;;;;;;5015492;28;20018;-81
2021/12/20 10:48:08;;;;;;;4.55;1.73;;;;;;;;;;5016955;28;20026;-83
2021/12/20 10:50:42;;;;;;;3.90;1.73;;;;;;;;;;5014866;28;20080;-83
2021/12/20 10:53:15;;;;;;;4.38;1.77;;;;;;;;;;5017310;28;20034;-83
2021/12/20 10:55:43;;;;;;;3.78;1.83;;;;;;;;;;5011220;28;20109;-82
2021/12/20 10:58:16;;;;;;;4.22;1.63;;;;;;;;;;5011191;28;20018;-82
2021/12/20 11:00:42;;;;;;;5.57;1.95;;;;;;;;;;4996886;28;20488;-81
2021/12/20 11:03:24;;;;;;;5.53;2.05;;;;;;;;;;4997556;28;20057;-83
2021/12/20 11:06:26;;;;;;;4.95;2.10;;;;;;;;;;4996389;28;20081;-82
2021/12/20 11:11:27;;;;;;;3.97;1.70;;;;;;;;;;5016303;28;20088;-83
2021/12/20 11:13:54;;;;;;;4.75;2.10;;;;;;;;;;5015636;28;20472;-83
2021/12/20 11:16:28;;;;;;;3.35;1.75;;;;;;;;;;5016524;28;20108;-82
2021/12/20 11:19:12;;;;;;;5.30;1.85;;;;;;;;;;5015991;28;20379;-81
2021/12/20 11:21:45;;;;;;;4.07;1.95;;;;;;;;;;5014886;28;20026;-82
2021/12/20 11:24:15;;;;;;;4.55;2.00;;;;;;;;;;5016014;28;20024;-82
2021/12/20 11:26:41;;;;;;;4.93;2.00;;;;;;;;;;5016030;28;20029;-83
2021/12/20 11:29:10;;;;;;;4.75;1.92;;;;;;;;;;5015656;28;20026;-82
2021/12/20 11:31:37;;;;;;;3.67;1.98;;;;;;;;;;5015534;28;20659;-82
2021/12/20 11:34:03;;;;;;;3.60;1.60;;;;;;;;;;5013800;28;20081;-82
2021/12/20 11:36:29;;;;;;;4.95;1.90;;;;;;;;;;5016424;28;20021;-82
2021/12/20 11:38:58;;;;;;;5.03;1.83;;;;;;;;;;5016018;28;20026;-80
2021/12/20 11:41:26;;;;;;;4.53;1.95;;;;;;;;;;5004551;28;20029;-83
2021/12/20 11:43:52;;;;;;;4.20;1.55;;;;;;;;;;4998782;28;20026;-83
2021/12/20 11:46:19;;;;;;;4.20;1.92;;;;;;;;;;4995106;28;20384;-82
2021/12/20 11:48:46;;;;;;;4.25;2.00;;;;;;;;;;5007709;28;20026;-82
2021/12/20 11:51:12;;;;;;;5.05;1.90;;;;;;;;;;5016100;28;20030;-82
2021/12/20 11:53:40;;;;;;;5.25;1.90;;;;;;;;;;5014482;28;20479;-80
2021/12/20 11:56:07;;;;;;;6.57;2.20;;;;;;;;;;5016140;28;20045;-82
2021/12/20 11:58:34;;;;;;;4.13;2.00;;;;;;;;;;5016236;28;20097;-84
2021/12/20 12:01:01;;;;;;;3.80;1.98;;;;;;;;;;5016506;28;20022;-82
2021/12/20 12:03:30;;;;;;;7.05;2.50;;;;;;;;;;5015260;28;20045;-83
2021/12/20 12:05:57;;;;;;;4.30;2.00;;;;;;;;;;5016137;28;20120;-83
2021/12/20 12:08:43;;;;;;;5.15;2.10;;;;;;;;;;5016215;28;20510;-84
2021/12/20 12:11:09;;;;;;;5.07;2.00;;;;;;;;;;5014149;28;20105;-81
2021/12/20 12:13:46;;;;;;;5.65;2.03;;;;;;;;;;5014734;28;20070;-81
2021/12/20 12:16:27;;;;;;;4.65;2.10;;;;;;;;;;5016885;28;20022;-84
2021/12/20 12:18:53;;;;;;;4.20;1.70;;;;;;;;;;5019414;28;20036;-81
2021/12/20 12:21:32;;;;;;;4.45;1.80;;;;;;;;;;5017849;28;20026;-84
2021/12/20 12:23:59;;;;;;;5.30;2.20;;;;;;;;;;5023011;28;20096;-82
2021/12/20 12:26:46;;;;;;;6.15;2.40;;;;;;;;;;5032265;28;20101;-83
2021/12/20 12:29:30;;;;;;;4.63;2.33;;;;;;;;;;5028388;28;20136;-83
2021/12/20 12:31:57;;;;;;;10.38;2.40;;;;;;;;;;5020172;28;20407;-84
2021/12/20 12:34:39;;;;;;;3.85;1.63;;;;;;;;;;5019425;28;20029;-84
2021/12/20 12:37:18;;;;;;;7.10;3.15;;;;;;;;;;5019331;28;20040;-83
2021/12/20 12:39:44;;;;;;;5.43;2.05;;;;;;;;;;5018563;28;20117;-83
2021/12/20 12:42:10;;;;;;;4.30;2.10;;;;;;;;;;5017234;28;20053;-84
2021/12/20 12:44:36;;;;;;;4.85;2.20;;;;;;;;;;5020356;28;20115;-82
2021/12/20 12:47:13;;;;;;;3.80;2.15;;;;;;;;;;5018862;28;20030;-84
2021/12/20 12:49:39;;;;;;;4.05;1.98;;;;;;;;;;5019210;28;20060;-83
2021/12/20 12:52:07;;;;;;;4.75;2.70;;;;;;;;;;5019073;28;20046;-83
2021/12/20 12:54:32;;;;;;;4.05;2.28;;;;;;;;;;5018049;28;20044;-84
2021/12/20 12:57:11;;;;;;;4.38;1.98;;;;;;;;;;5019874;28;20503;-82
2021/12/20 12:59:40;;;;;;;4.00;1.98;;;;;;;;;;5019062;28;20457;-82
2021/12/20 13:02:08;;;;;;;3.75;1.75;;;;;;;;;;5019937;28;20115;-82
2021/12/20 13:04:45;;;;;;;5.05;1.90;;;;;;;;;;5035464;28;20022;-82
2021/12/20 13:07:12;;;;;;;4.13;2.00;;;;;;;;;;5033822;28;20364;-84
2021/12/20 13:09:44;;;;;;;4.20;2.25;;;;;;;;;;5021470;28;20029;-84
2021/12/20 13:12:13;;;;;;;6.35;2.28;;;;;;;;;;5020767;28;20614;-84
2021/12/20 13:17:39;;;;;;;6.43;2.30;;;;;;;;;;5019672;28;20037;-83
2021/12/20 13:20:23;;;;;;;4.03;1.90;;;;;;;;;;5018168;28;20083;-84
2021/12/20 13:23:15;;;;;;;6.57;2.20;;;;;;;;;;5019715;28;20072;-83
2021/12/20 13:25:51;;;;;;;5.35;2.13;;;;;;;;;;5001245;28;20037;-83
2021/12/20 13:28:18;;;;;;;3.92;1.90;;;;;;;;;;5017514;28;20030;-83
2021/12/20 13:30:48;;;;;;;4.47;2.22;;;;;;;;;;5017359;28;20061;-82
2021/12/20 13:33:14;;;;;;;4.43;2.10;;;;;;;;;;5018176;28;20033;-82
2021/12/20 13:35:42;;;;;;;5.38;2.08;;;;;;;;;;5015753;28;20029;-83
2021/12/20 13:38:18;;;;;;;4.20;2.10;;;;;;;;;;5017895;28;20714;-82
2021/12/20 13:40:49;;;;;;;3.72;1.90;;;;;;;;;;5018707;28;20104;-83
2021/12/20 13:43:19;;;;;;;4.72;2.00;;;;;;;;;;5018292;28;20030;-82
2021/12/20 13:46:04;;;;;;;6.78;2.50;;;;;;;;;;5018343;28;20026;-82
2021/12/20 13:48:30;;;;;;;4.85;2.40;;;;;;;;;;5015727;28;20026;-84
2021/12/20 13:50:56;;;;;;;4.63;1.90;;;;;;;;;;5017717;28;20034;-83
2021/12/20 13:53:29;;;;;;;4.75;2.05;;;;;;;;;;5018185;28;20049;-83
2021/12/20 13:55:56;;;;;;;4.32;2.10;;;;;;;;;;5016270;28;20030;-82
2021/12/20 13:58:22;;;;;;;5.88;2.45;;;;;;;;;;5017864;28;20029;-82
2021/12/20 14:00:48;;;;;;;4.00;2.13;;;;;;;;;;5017900;28;20019;-82
2021/12/20 14:03:14;;;;;;;4.93;2.63;;;;;;;;;;5002001;28;20489;-83
2021/12/20 14:05:40;;;;;;;5.05;2.38;;;;;;;;;;4998918;28;20026;-82
2021/12/20 14:08:14;;;;;;;7.53;2.70;;;;;;;;;;5018135;28;20549;-81
2021/12/20 14:10:41;;;;;;;4.90;2.30;;;;;;;;;;5017582;28;20041;-84
2021/12/20 14:13:08;;;;;;;5.70;2.50;;;;;;;;;;5018008;28;20014;-83
2021/12/20 14:15:34;;;;;;;4.90;2.28;;;;;;;;;;5016403;28;20516;-82
2021/12/20 14:18:03;;;;;;;6.93;2.90;;;;;;;;;;5015266;28;20057;-82
2021/12/20 14:20:45;;;;;;;6.43;2.97;;;;;;;;;;5016762;28;20018;-82
2021/12/20 14:23:23;;;;;;;5.93;2.50;;;;;;;;;;5017336;28;20029;-82
2021/12/20 14:26:05;;;;;;;4.40;2.35;;;;;;;;;;5017454;28;20030;-82
2021/12/20 14:28:32;;;;;;;8.60;3.17;;;;;;;;;;5015260;28;20515;-83
2021/12/20 14:31:04;;;;;;;5.78;2.40;;;;;;;;;;5015981;28;20042;-82
2021/12/20 14:33:37;;;;;;;4.60;2.30;;;;;;;;;;5016101;28;20026;-81
2021/12/20 14:36:16;;;;;;;5.63;2.50;;;;;;;;;;4996738;28;20261;-82
2021/12/20 14:38:43;;;;;;;4.15;2.25;;;;;;;;;;5008577;28;20036;-81
2021/12/20 14:41:21;;;;;;;4.28;2.17;;;;;;;;;;5006525;28;20019;-82
2021/12/20 14:43:48;;;;;;;5.82;2.72;;;;;;;;;;5013788;28;20053;-82
2021/12/20 14:46:21;;;;;;;4.47;2.08;;;;;;;;;;5016039;28;20030;-82
2021/12/20 14:48:52;;;;;;;4.35;1.98;;;;;;;;;;5005783;28;20053;-81
2021/12/20 14:51:25;;;;;;;4.50;2.10;;;;;;;;;;5011700;28;20084;-82
2021/12/20 14:54:10;;;;;;;4.60;2.20;;;;;;;;;;5013466;28;20070;-82
2021/12/20 14:56:36;;;;;;;4.97;2.15;;;;;;;;;;5017237;28;20069;-83
2021/12/20 14:59:02;;;;;;;4.68;2.03;;;;;;;;;;5017652;28;20037;-81
2021/12/20 15:01:29;;;;;;;4.18;2.13;;;;;;;;;;5016628;28;20028;-82
2021/12/20 15:03:56;;;;;;;4.60;2.10;;;;;;;;;;5014155;28;20165;-83
2021/12/20 15:06:23;;;;;;;5.72;2.05;;;;;;;;;;5007500;28;20034;-82